createdAt,value
2018-01-25T00:01:59.788Z,3.30
2018-01-25T00:04:27.301Z,3.30
2018-01-25T00:06:54.828Z,3.20
2018-01-25T00:09:22.366Z,3.20
2018-01-25T00:11:50.607Z,3.10
2018-01-25T00:14:18.152Z,3.10
2018-01-25T00:16:45.644Z,3.20
2018-01-25T00:19:13.137Z,3.20
2018-01-25T00:21:40.688Z,3.20
2018-01-25T00:24:08.956Z,3.20
2018-01-25T00:26:36.470Z,3.10
2018-01-25T00:29:04.002Z,3.20
2018-01-25T00:31:32.260Z,3.20
2018-01-25T00:33:59.771Z,3.10
2018-01-25T00:36:27.292Z,3.20
2018-01-25T00:38:55.566Z,3.30
2018-01-25T00:41:23.082Z,3.20
2018-01-25T00:43:50.629Z,3.20
2018-01-25T00:46:18.130Z,3.20
2018-01-25T00:48:45.647Z,3.20
2018-01-25T00:51:13.162Z,3.20
2018-01-25T00:53:40.718Z,3.20
2018-01-25T00:56:08.224Z,3.30
2018-01-25T00:58:36.525Z,3.20
2018-01-25T01:01:04.029Z,3.20
2018-01-25T01:03:31.532Z,3.10
2018-01-25T01:05:59.830Z,3.20
2018-01-25T01:08:27.326Z,3.20
2018-01-25T01:10:54.828Z,3.20
2018-01-25T01:13:23.112Z,3.10
2018-01-25T01:15:51.389Z,3.10
2018-01-25T01:18:19.690Z,3.10
2018-01-25T01:20:47.206Z,3.10
2018-01-25T01:23:14.713Z,3.10
2018-01-25T01:25:43.003Z,3.20
2018-01-25T01:28:10.501Z,3.10
2018-01-25T01:30:38.015Z,3.10
2018-01-25T01:33:06.305Z,3.20
2018-01-25T01:35:33.806Z,3.20
2018-01-25T01:38:01.300Z,3.20
2018-01-25T01:40:29.618Z,3.20
2018-01-25T01:42:57.125Z,3.10
2018-01-25T01:45:24.641Z,3.20
2018-01-25T01:47:52.172Z,3.20
2018-01-25T01:50:20.445Z,3.20
2018-01-25T01:52:47.976Z,3.10
2018-01-25T01:55:15.508Z,3.20
2018-01-25T01:57:43.020Z,3.20
2018-01-25T02:00:10.551Z,3.20
2018-01-25T02:02:38.086Z,3.20
2018-01-25T02:05:06.351Z,3.10
2018-01-25T02:07:33.861Z,3.10
2018-01-25T02:10:01.390Z,3.20
2018-01-25T02:12:29.658Z,3.10
2018-01-25T02:14:57.174Z,3.10
2018-01-25T02:17:24.709Z,3.10
2018-01-25T02:19:52.216Z,3.00
2018-01-25T02:22:19.735Z,3.00
2018-01-25T02:24:47.264Z,3.00
2018-01-25T02:27:14.766Z,2.90
2018-01-25T02:29:42.261Z,2.90
2018-01-25T02:32:10.554Z,2.90
2018-01-25T02:34:38.829Z,3.00
2018-01-25T02:37:06.332Z,3.00
2018-01-25T02:39:34.626Z,3.00
2018-01-25T02:42:02.135Z,3.00
2018-01-25T02:44:30.412Z,3.00
2018-01-25T02:46:57.943Z,3.00
2018-01-25T02:49:25.458Z,3.00
2018-01-25T02:51:52.957Z,3.00
2018-01-25T02:54:20.484Z,3.10
2018-01-25T02:56:47.978Z,3.00
2018-01-25T02:59:16.247Z,3.10
2018-01-25T03:01:44.539Z,3.00
2018-01-25T03:04:12.808Z,3.00
2018-01-25T03:06:40.348Z,3.00
2018-01-25T03:09:07.875Z,3.00
2018-01-25T03:11:35.380Z,3.00
2018-01-25T03:14:02.894Z,3.00
2018-01-25T03:16:30.449Z,3.00
2018-01-25T03:18:57.943Z,3.10
2018-01-25T03:21:25.452Z,3.10
2018-01-25T03:23:53.835Z,3.20
2018-01-25T03:26:21.329Z,3.20
2018-01-25T03:28:48.833Z,3.10
2018-01-25T03:31:16.381Z,3.20
2018-01-25T03:33:43.885Z,3.20
2018-01-25T03:36:12.152Z,3.30
2018-01-25T03:38:39.706Z,3.30
2018-01-25T03:41:07.212Z,3.30
2018-01-25T03:43:34.712Z,3.30
2018-01-25T03:46:02.237Z,3.30
2018-01-25T03:48:29.731Z,3.20
2018-01-25T03:50:57.235Z,3.20
2018-01-25T03:53:24.748Z,3.20
2018-01-25T03:55:52.241Z,3.20
2018-01-25T03:58:19.732Z,3.10
2018-01-25T04:00:48.016Z,3.10
2018-01-25T04:03:16.280Z,3.10
2018-01-25T04:05:43.785Z,3.00
2018-01-25T04:08:11.314Z,3.10
2018-01-25T04:10:39.581Z,3.00
2018-01-25T04:13:07.093Z,3.00
2018-01-25T04:15:34.632Z,3.00
2018-01-25T04:18:02.890Z,3.00
2018-01-25T04:20:30.397Z,3.00
2018-01-25T04:22:57.927Z,3.00
2018-01-25T04:25:26.198Z,2.90
2018-01-25T04:27:54.463Z,2.90
2018-01-25T04:30:21.985Z,2.90
2018-01-25T04:32:49.481Z,2.90
2018-01-25T04:35:16.986Z,2.90
2018-01-25T04:37:45.272Z,2.80
2018-01-25T04:40:12.773Z,2.80
2018-01-25T04:42:40.284Z,2.80
2018-01-25T04:45:08.576Z,2.70
2018-01-25T04:47:36.847Z,2.70
2018-01-25T04:50:05.115Z,2.70
2018-01-25T04:52:32.636Z,2.60
2018-01-25T04:55:00.133Z,2.60
2018-01-25T04:57:27.635Z,2.60
2018-01-25T04:59:55.157Z,2.60
2018-01-25T05:02:22.662Z,2.70
2018-01-25T05:04:50.173Z,2.60
2018-01-25T05:07:17.699Z,2.60
2018-01-25T05:09:45.198Z,2.60
2018-01-25T05:12:12.696Z,2.50
2018-01-25T05:14:40.998Z,2.50
2018-01-25T05:17:08.500Z,2.40
2018-01-25T05:19:36.009Z,2.40
2018-01-25T05:22:03.539Z,2.40
2018-01-25T05:24:31.036Z,2.40
2018-01-25T05:26:58.537Z,2.50
2018-01-25T05:29:26.061Z,2.40
2018-01-25T05:31:53.567Z,2.40
2018-01-25T05:34:21.060Z,2.40
2018-01-25T05:36:48.595Z,2.40
2018-01-25T05:39:16.102Z,2.40
2018-01-25T05:41:44.393Z,2.40
2018-01-25T05:44:11.945Z,2.40
2018-01-25T05:46:40.215Z,2.40
2018-01-25T05:49:07.725Z,2.40
2018-01-25T05:51:35.249Z,2.30
2018-01-25T05:54:03.540Z,2.30
2018-01-25T05:56:31.841Z,2.30
2018-01-25T05:58:59.345Z,2.30
2018-01-25T06:01:26.853Z,2.20
2018-01-25T06:03:54.403Z,2.20
2018-01-25T06:06:22.700Z,2.10
2018-01-25T06:08:50.213Z,2.10
2018-01-25T06:11:17.753Z,2.10
2018-01-25T06:13:45.263Z,2.10
2018-01-25T06:16:13.540Z,2.10
2018-01-25T06:18:41.854Z,2.20
2018-01-25T06:21:09.361Z,2.10
2018-01-25T06:23:36.870Z,2.20
2018-01-25T06:26:04.411Z,2.40
2018-01-25T06:28:31.975Z,2.40
2018-01-25T06:30:59.452Z,2.40
2018-01-25T06:33:27.761Z,2.60
2018-01-25T06:35:55.298Z,2.60
2018-01-25T06:38:22.813Z,2.50
2018-01-25T06:40:50.362Z,2.50
2018-01-25T06:43:17.888Z,2.50
2018-01-25T06:45:46.180Z,2.60
2018-01-25T06:48:13.761Z,2.60
2018-01-25T06:50:41.282Z,2.50
2018-01-25T06:53:09.556Z,2.60
2018-01-25T06:55:37.098Z,2.60
2018-01-25T06:58:04.591Z,2.60
2018-01-25T07:00:32.866Z,2.70
2018-01-25T07:03:00.427Z,2.70
2018-01-25T07:05:28.716Z,2.70
2018-01-25T07:07:56.999Z,2.70
2018-01-25T07:10:25.264Z,2.70
2018-01-25T07:12:52.765Z,2.70
2018-01-25T07:15:20.312Z,2.70
2018-01-25T07:17:48.581Z,2.80
2018-01-25T07:20:16.091Z,2.80
2018-01-25T07:22:43.628Z,2.90
2018-01-25T07:25:11.115Z,2.90
2018-01-25T07:27:38.624Z,2.80
2018-01-25T07:30:06.157Z,2.90
2018-01-25T07:32:33.660Z,2.90
2018-01-25T07:35:01.921Z,3.00
2018-01-25T07:37:29.450Z,3.00
2018-01-25T07:39:56.957Z,3.10
2018-01-25T07:42:24.457Z,3.00
2018-01-25T07:44:51.993Z,3.00
2018-01-25T07:47:20.277Z,3.10
2018-01-25T07:49:48.539Z,3.10
2018-01-25T07:52:16.081Z,3.10
2018-01-25T07:54:43.587Z,3.20
2018-01-25T07:57:17.628Z,3.20
2018-01-25T07:59:45.133Z,3.20
2018-01-25T08:02:12.646Z,3.30
2018-01-25T08:04:40.175Z,3.30
2018-01-25T08:07:07.682Z,3.40
2018-01-25T08:09:35.184Z,3.50
2018-01-25T08:12:02.756Z,3.40
2018-01-25T08:14:30.263Z,3.50
2018-01-25T08:16:57.773Z,3.60
2018-01-25T08:19:25.334Z,3.60
2018-01-25T08:21:52.849Z,3.70
2018-01-25T08:24:20.355Z,3.70
2018-01-25T08:26:47.900Z,3.90
2018-01-25T08:29:15.396Z,3.90
2018-01-25T08:31:42.899Z,3.90
2018-01-25T08:34:10.425Z,4.00
2018-01-25T08:36:37.934Z,4.00
2018-01-25T08:39:05.440Z,4.00
2018-01-25T08:41:33.227Z,4.00
2018-01-25T08:44:00.505Z,4.00
2018-01-25T08:46:28.785Z,4.10
2018-01-25T08:48:56.335Z,4.10
2018-01-25T08:51:24.614Z,4.20
2018-01-25T08:53:52.931Z,4.30
2018-01-25T08:56:20.436Z,4.30
2018-01-25T08:58:48.709Z,4.30
2018-01-25T09:01:16.242Z,4.30
2018-01-25T09:03:43.742Z,4.40
2018-01-25T09:06:11.276Z,4.30
2018-01-25T09:08:38.809Z,4.30
2018-01-25T09:11:06.365Z,4.40
2018-01-25T09:13:34.671Z,4.40
2018-01-25T09:16:02.197Z,4.40
2018-01-25T09:18:30.481Z,4.50
2018-01-25T09:20:58.001Z,4.40
2018-01-25T09:23:25.533Z,4.50
2018-01-25T09:25:53.041Z,4.60
2018-01-25T09:28:20.568Z,4.60
2018-01-25T09:30:48.113Z,4.60
2018-01-25T09:33:15.622Z,4.70
2018-01-25T09:35:43.133Z,4.70
2018-01-25T09:38:11.470Z,4.70
2018-01-25T09:40:38.982Z,4.70
2018-01-25T09:43:06.532Z,4.80
2018-01-25T09:45:34.846Z,4.80
2018-01-25T09:48:02.363Z,4.70
2018-01-25T09:50:29.892Z,4.70
2018-01-25T09:52:57.482Z,4.80
2018-01-25T09:55:24.989Z,4.80
2018-01-25T09:57:52.508Z,4.80
2018-01-25T10:00:20.045Z,4.80
2018-01-25T10:02:47.540Z,4.80
2018-01-25T10:05:15.052Z,4.80
2018-01-25T10:07:42.596Z,4.80
2018-01-25T10:10:10.095Z,4.90
2018-01-25T10:12:37.596Z,4.90
2018-01-25T10:15:05.124Z,4.90
2018-01-25T10:17:32.620Z,4.90
2018-01-25T10:20:00.123Z,4.90
2018-01-25T10:22:27.652Z,5.00
2018-01-25T10:24:55.161Z,5.10
2018-01-25T10:27:22.677Z,5.10
2018-01-25T10:29:50.999Z,5.20
2018-01-25T10:32:18.511Z,5.20
2018-01-25T10:34:46.791Z,5.30
2018-01-25T10:37:14.324Z,5.20
2018-01-25T10:39:41.823Z,5.30
2018-01-25T10:42:09.320Z,5.30
2018-01-25T10:44:36.848Z,5.30
2018-01-25T10:47:04.356Z,5.40
2018-01-25T10:49:31.853Z,5.50
2018-01-25T10:51:59.392Z,5.50
2018-01-25T10:54:26.924Z,5.70
2018-01-25T10:56:55.192Z,5.60
2018-01-25T10:59:23.599Z,5.60
2018-01-25T11:01:56.745Z,5.60
2018-01-25T11:04:24.276Z,5.60
2018-01-25T11:06:51.821Z,5.60
2018-01-25T11:09:19.331Z,5.50
2018-01-25T11:11:46.877Z,5.50
2018-01-25T11:14:14.384Z,5.50
2018-01-25T11:16:42.691Z,5.50
2018-01-25T11:19:10.221Z,5.50
2018-01-25T11:21:37.749Z,5.50
2018-01-25T11:24:05.244Z,5.50
2018-01-25T11:26:32.798Z,5.50
2018-01-25T11:29:00.303Z,5.40
2018-01-25T11:31:27.802Z,5.40
2018-01-25T11:33:55.320Z,5.40
2018-01-25T11:36:22.838Z,5.40
2018-01-25T11:38:50.356Z,5.40
2018-01-25T11:41:17.998Z,5.40
2018-01-25T11:43:46.280Z,5.50
2018-01-25T11:46:14.641Z,5.50
2018-01-25T11:48:42.192Z,5.50
2018-01-25T11:51:09.710Z,5.60
2018-01-25T11:53:37.225Z,5.70
2018-01-25T11:56:04.850Z,5.80
2018-01-25T11:58:33.122Z,5.90
2018-01-25T12:01:01.373Z,5.90
2018-01-25T12:03:29.686Z,6.00
2018-01-25T12:05:57.187Z,5.90
2018-01-25T12:08:24.691Z,6.00
2018-01-25T12:10:53.028Z,6.00
2018-01-25T12:13:20.536Z,6.00
2018-01-25T12:15:48.814Z,6.00
2018-01-25T12:18:16.361Z,6.00
2018-01-25T12:20:43.889Z,6.00
2018-01-25T12:23:12.171Z,6.00
2018-01-25T12:25:39.714Z,6.00
2018-01-25T12:28:07.228Z,6.00
2018-01-25T12:30:34.750Z,5.90
2018-01-25T12:33:02.277Z,5.90
2018-01-25T12:35:30.548Z,6.00
2018-01-25T12:37:58.868Z,6.10
2018-01-25T12:40:26.395Z,6.00
2018-01-25T12:42:53.909Z,6.10
2018-01-25T12:45:21.484Z,6.10
2018-01-25T12:47:48.996Z,6.10
2018-01-25T12:50:16.523Z,6.10
2018-01-25T12:52:44.063Z,6.20
2018-01-25T12:55:11.617Z,6.20
2018-01-25T12:57:39.136Z,6.20
2018-01-25T13:00:07.543Z,6.20
2018-01-25T13:02:35.087Z,6.20
2018-01-25T13:05:03.361Z,6.20
2018-01-25T13:07:31.698Z,6.10
2018-01-25T13:09:59.218Z,6.10
2018-01-25T13:12:26.734Z,6.20
2018-01-25T13:14:54.259Z,6.20
2018-01-25T13:17:21.832Z,6.20
2018-01-25T13:19:49.349Z,6.20
2018-01-25T13:22:16.924Z,6.20
2018-01-25T13:24:45.241Z,6.30
2018-01-25T13:27:13.476Z,6.20
2018-01-25T13:29:41.036Z,6.20
2018-01-25T13:32:08.573Z,6.10
2018-01-25T13:34:36.097Z,6.10
2018-01-25T13:37:03.624Z,6.10
2018-01-25T13:39:31.140Z,6.10
2018-01-25T13:41:58.661Z,6.10
2018-01-25T13:44:27.057Z,6.20
2018-01-25T13:46:54.585Z,6.20
2018-01-25T13:49:22.203Z,6.20
2018-01-25T13:51:50.584Z,6.20
2018-01-25T13:54:18.104Z,6.10
2018-01-25T13:56:45.628Z,6.10
2018-01-25T13:59:13.225Z,6.10
2018-01-25T14:01:40.734Z,6.10
2018-01-25T14:04:08.272Z,6.20
2018-01-25T14:06:36.652Z,6.30
2018-01-25T14:09:04.171Z,6.20
2018-01-25T14:11:31.678Z,6.20
2018-01-25T14:14:00.093Z,6.30
2018-01-25T14:16:27.676Z,6.30
2018-01-25T14:18:55.188Z,6.20
2018-01-25T14:21:23.516Z,6.20
2018-01-25T14:23:51.033Z,6.10
2018-01-25T14:26:19.309Z,6.10
2018-01-25T14:28:46.857Z,6.00
2018-01-25T14:31:14.473Z,6.00
2018-01-25T14:33:41.998Z,6.00
2018-01-25T14:36:09.529Z,6.00
2018-01-25T14:38:37.058Z,6.00
2018-01-25T14:41:04.582Z,5.90
2018-01-25T14:43:32.141Z,5.90
2018-01-25T14:45:59.651Z,5.80
2018-01-25T14:48:27.207Z,5.70
2018-01-25T14:50:54.736Z,5.70
2018-01-25T14:53:22.258Z,5.60
2018-01-25T14:55:49.785Z,5.60
2018-01-25T14:58:18.118Z,5.50
2018-01-25T15:00:45.636Z,5.50
2018-01-25T15:03:13.900Z,5.40
2018-01-25T15:05:42.227Z,5.40
2018-01-25T15:08:09.740Z,5.40
2018-01-25T15:10:37.249Z,5.30
2018-01-25T15:13:04.834Z,5.30
2018-01-25T15:15:32.362Z,5.20
2018-01-25T15:17:59.882Z,5.20
2018-01-25T15:20:27.413Z,5.20
2018-01-25T15:22:54.962Z,5.10
2018-01-25T15:25:28.223Z,5.10
2018-01-25T15:27:56.541Z,5.00
2018-01-25T15:30:24.086Z,4.90
2018-01-25T15:32:51.674Z,4.90
2018-01-25T15:35:19.219Z,4.90
2018-01-25T15:37:46.749Z,4.90
2018-01-25T15:40:14.316Z,4.80
2018-01-25T15:42:41.863Z,4.70
2018-01-25T15:45:09.359Z,4.70
2018-01-25T15:47:37.687Z,4.60
2018-01-25T15:50:05.206Z,4.50
2018-01-25T15:52:33.484Z,4.50
2018-01-25T15:55:01.792Z,4.40
2018-01-25T15:57:29.304Z,4.40
2018-01-25T15:59:56.825Z,4.40
2018-01-25T16:02:24.360Z,4.40
2018-01-25T16:04:52.629Z,4.30
2018-01-25T16:07:20.954Z,4.30
2018-01-25T16:09:48.478Z,4.30
2018-01-25T16:12:16.757Z,4.30
2018-01-25T16:14:45.068Z,4.20
2018-01-25T16:17:12.704Z,4.20
2018-01-25T16:19:40.217Z,4.20
2018-01-25T16:22:07.812Z,4.10
2018-01-25T16:24:35.342Z,4.10
2018-01-25T16:27:02.837Z,4.00
2018-01-25T16:29:30.363Z,4.00
2018-01-25T16:31:57.877Z,4.00
2018-01-25T16:34:26.142Z,4.00
2018-01-25T16:36:53.718Z,3.90
2018-01-25T16:39:21.996Z,3.90
2018-01-25T16:41:49.517Z,3.90
2018-01-25T16:44:17.070Z,3.90
2018-01-25T16:46:44.591Z,3.90
2018-01-25T16:49:12.861Z,3.80
2018-01-25T16:51:40.404Z,3.80
2018-01-25T16:54:07.920Z,3.80
2018-01-25T16:56:35.439Z,3.80
2018-01-25T16:59:02.976Z,3.80
2018-01-25T17:01:30.495Z,3.80
2018-01-25T17:03:58.777Z,3.80
2018-01-25T17:06:27.090Z,3.70
2018-01-25T17:08:54.604Z,3.70
2018-01-25T17:11:22.124Z,3.70
2018-01-25T17:13:49.739Z,3.70
2018-01-25T17:16:18.038Z,3.60
2018-01-25T17:18:45.559Z,3.60
2018-01-25T17:21:13.178Z,3.60
2018-01-25T17:23:40.716Z,3.60
2018-01-25T17:26:09.010Z,3.50
2018-01-25T17:28:36.548Z,3.50
2018-01-25T17:31:04.056Z,3.50
2018-01-25T17:33:31.567Z,3.50
2018-01-25T17:35:59.082Z,3.50
2018-01-25T17:38:26.604Z,3.40
2018-01-25T17:40:54.886Z,3.40
2018-01-25T17:43:23.197Z,3.40
2018-01-25T17:45:50.714Z,3.40
2018-01-25T17:48:18.216Z,3.30
2018-01-25T17:50:45.764Z,3.40
2018-01-25T17:53:14.034Z,3.30
2018-01-25T17:55:42.310Z,3.20
2018-01-25T17:58:09.848Z,3.20
2018-01-25T18:00:37.361Z,3.30
2018-01-25T18:03:04.883Z,3.20
2018-01-25T18:05:32.417Z,3.20
2018-01-25T18:07:59.931Z,3.20
2018-01-25T18:10:28.213Z,3.10
2018-01-25T18:12:56.563Z,3.10
2018-01-25T18:15:24.101Z,3.10
2018-01-25T18:17:51.598Z,3.20
2018-01-25T18:20:19.151Z,3.10
2018-01-25T18:22:46.656Z,3.10
2018-01-25T18:25:14.954Z,3.10
2018-01-25T18:27:42.495Z,3.10
2018-01-25T18:30:10.766Z,3.00
2018-01-25T18:32:38.278Z,3.00
2018-01-25T18:35:05.815Z,3.00
2018-01-25T18:37:34.107Z,3.00
2018-01-25T18:40:01.650Z,2.90
2018-01-25T18:42:30.054Z,2.90
2018-01-25T18:44:57.586Z,2.90
2018-01-25T18:47:25.869Z,2.90
2018-01-25T18:49:54.224Z,2.90
2018-01-25T18:52:21.759Z,2.90
2018-01-25T18:54:49.282Z,2.90
2018-01-25T18:57:17.578Z,2.90
2018-01-25T18:59:45.116Z,2.90
2018-01-25T19:02:12.670Z,2.90
2018-01-25T19:04:40.284Z,2.90
2018-01-25T19:07:07.861Z,2.80
2018-01-25T19:09:35.462Z,2.80
2018-01-25T19:12:02.998Z,2.80
2018-01-25T19:14:30.536Z,2.80
2018-01-25T19:16:58.128Z,2.80
2018-01-25T19:19:25.659Z,2.70
2018-01-25T19:21:53.178Z,2.60
2018-01-25T19:24:20.745Z,2.60
2018-01-25T19:26:48.332Z,2.60
2018-01-25T19:29:16.639Z,2.50
2018-01-25T19:31:44.158Z,2.50
2018-01-25T19:34:11.748Z,2.40
2018-01-25T19:36:40.129Z,2.20
2018-01-25T19:39:08.422Z,2.10
2018-01-25T19:41:35.960Z,2.10
2018-01-25T19:44:03.515Z,2.10
2018-01-25T19:46:31.063Z,2.00
2018-01-25T19:48:58.637Z,1.90
2018-01-25T19:51:26.179Z,1.80
2018-01-25T19:53:53.750Z,1.80
2018-01-25T19:56:21.324Z,1.70
2018-01-25T19:58:48.832Z,1.70
2018-01-25T20:01:16.368Z,1.60
2018-01-25T20:03:43.917Z,1.50
2018-01-25T20:06:11.437Z,1.50
2018-01-25T20:08:38.979Z,1.50
2018-01-25T20:11:07.366Z,1.50
2018-01-25T20:13:34.889Z,1.40
2018-01-25T20:16:02.426Z,1.40
2018-01-25T20:18:29.983Z,1.40
2018-01-25T20:20:57.504Z,1.40
2018-01-25T20:23:25.802Z,1.50
2018-01-25T20:25:53.342Z,1.40
2018-01-25T20:28:21.643Z,1.50
2018-01-25T20:30:49.168Z,1.50
2018-01-25T20:33:16.713Z,1.40
2018-01-25T20:35:44.262Z,1.40
2018-01-25T20:38:11.785Z,1.40
2018-01-25T20:40:40.130Z,1.40
2018-01-25T20:43:07.730Z,1.30
2018-01-25T20:45:36.053Z,1.30
2018-01-25T20:48:03.600Z,1.30
2018-01-25T20:50:31.136Z,1.20
2018-01-25T20:52:59.417Z,1.30
2018-01-25T20:55:27.767Z,1.30
2018-01-25T20:57:55.282Z,1.30
2018-01-25T21:00:22.841Z,1.30
2018-01-25T21:02:50.392Z,1.30
2018-01-25T21:05:18.688Z,1.40
2018-01-25T21:07:46.243Z,1.40
2018-01-25T21:10:14.567Z,1.40
2018-01-25T21:12:42.105Z,1.40
2018-01-25T21:15:09.621Z,1.40
2018-01-25T21:17:37.165Z,1.40
2018-01-25T21:20:05.461Z,1.30
2018-01-25T21:22:33.026Z,1.30
2018-01-25T21:25:00.612Z,1.30
2018-01-25T21:27:28.955Z,1.20
2018-01-25T21:29:56.499Z,1.20
2018-01-25T21:32:24.082Z,1.20
2018-01-25T21:34:51.640Z,1.10
2018-01-25T21:37:19.304Z,1.10
2018-01-25T21:39:46.916Z,1.10
2018-01-25T21:42:15.204Z,1.00
2018-01-25T21:44:43.522Z,1.00
2018-01-25T21:47:11.096Z,1.00
2018-01-25T21:49:38.702Z,0.90
2018-01-25T21:52:06.222Z,0.90
2018-01-25T21:54:33.769Z,0.80
2018-01-25T21:57:01.296Z,0.80
2018-01-25T21:59:29.580Z,0.70
2018-01-25T22:01:57.887Z,0.70
2018-01-25T22:04:25.405Z,0.60
2018-01-25T22:06:52.924Z,0.60
2018-01-25T22:09:20.471Z,0.60
2018-01-25T22:11:48.007Z,0.60
2018-01-25T22:14:15.543Z,0.60
2018-01-25T22:16:43.164Z,0.60
2018-01-25T22:19:10.684Z,0.70
2018-01-25T22:21:38.257Z,0.60
2018-01-25T22:24:05.800Z,0.60
2018-01-25T22:26:33.375Z,0.60
2018-01-25T22:29:00.920Z,0.50
2018-01-25T22:31:28.547Z,0.50
2018-01-25T22:33:56.098Z,0.50
2018-01-25T22:36:24.388Z,0.40
2018-01-25T22:38:51.958Z,0.40
2018-01-25T22:41:19.470Z,0.40
2018-01-25T22:43:46.991Z,0.30
2018-01-25T22:46:14.557Z,0.20
2018-01-25T22:48:42.097Z,0.20
2018-01-25T22:51:10.372Z,0.20
2018-01-25T22:53:38.781Z,0.10
2018-01-25T22:56:06.317Z,0.10
2018-01-25T22:58:34.606Z,0.10
2018-01-25T23:01:02.951Z,0.20
2018-01-25T23:03:30.472Z,0.20
2018-01-25T23:05:58.023Z,0.10
2018-01-25T23:08:25.578Z,0.10
2018-01-25T23:10:53.856Z,0.00
2018-01-25T23:13:22.143Z,-0.10
2018-01-25T23:15:50.438Z,-0.10
2018-01-25T23:18:17.956Z,-0.10
2018-01-25T23:20:45.484Z,-0.10
2018-01-25T23:23:13.068Z,-0.10
2018-01-25T23:25:40.590Z,-0.20
2018-01-25T23:28:08.133Z,-0.10
2018-01-25T23:30:36.438Z,-0.10
2018-01-25T23:33:03.956Z,-0.20
2018-01-25T23:35:31.486Z,-0.20
2018-01-25T23:37:59.021Z,-0.20
2018-01-25T23:40:26.532Z,-0.20
2018-01-25T23:42:54.036Z,-0.20
2018-01-25T23:45:22.326Z,-0.20
2018-01-25T23:47:49.843Z,-0.20
2018-01-25T23:50:17.369Z,-0.20
2018-01-25T23:52:44.902Z,-0.10
2018-01-25T23:55:13.192Z,-0.20
2018-01-25T23:57:40.717Z,-0.20
